createdAt,value
2019-04-23T00:00:13.609Z,13.10
2019-04-23T00:02:58.530Z,13.07
2019-04-23T00:05:41.904Z,13.07
2019-04-23T00:08:11.268Z,13.11
2019-04-23T00:10:44.532Z,13.07
2019-04-23T00:13:26.051Z,12.99
2019-04-23T00:21:37.513Z,12.96
2019-04-23T00:24:53.093Z,12.91
2019-04-23T00:27:17.332Z,12.83
2019-04-23T00:29:40.197Z,12.84
2019-04-23T00:32:15.646Z,12.77
2019-04-23T00:34:47.992Z,12.77
2019-04-23T00:37:25.449Z,12.77
2019-04-23T00:39:54.724Z,12.66
2019-04-23T00:45:01.734Z,12.73
2019-04-23T00:47:38.780Z,12.60
2019-04-23T00:52:50.190Z,12.61
2019-04-23T00:55:21.197Z,12.58
2019-04-23T00:58:11.164Z,12.48
2019-04-23T01:00:45.138Z,12.48
2019-04-23T01:03:12.654Z,12.45
2019-04-23T01:05:47.101Z,12.43
2019-04-23T01:08:28.189Z,12.37
2019-04-23T01:11:21.097Z,12.30
2019-04-23T01:13:44.289Z,12.37
2019-04-23T01:16:15.055Z,12.37
2019-04-23T01:18:58.231Z,12.32
2019-04-23T01:21:19.910Z,12.27
2019-04-23T01:24:13.962Z,12.27
2019-04-23T01:27:39.750Z,12.27
2019-04-23T01:30:08.416Z,12.19
2019-04-23T01:37:46.678Z,12.17
2019-04-23T01:40:18.766Z,12.11
2019-04-23T01:42:49.344Z,12.01
2019-04-23T01:47:59.695Z,12.04
2019-04-23T01:50:47.094Z,12.03
2019-04-23T01:53:14.978Z,12.00
2019-04-23T01:55:46.967Z,12.00
2019-04-23T01:58:36.526Z,11.92
2019-04-23T02:00:52.857Z,11.94
2019-04-23T02:03:49.896Z,11.94
2019-04-23T02:06:10.180Z,11.89
2019-04-23T02:08:45.846Z,11.87
2019-04-23T02:11:13.196Z,11.87
2019-04-23T02:13:51.582Z,11.81
2019-04-23T02:16:24.731Z,11.83
2019-04-23T02:19:07.692Z,11.83
2019-04-23T02:21:43.439Z,11.71
2019-04-23T02:24:14.718Z,11.70
2019-04-23T02:26:43.900Z,11.67
2019-04-23T02:29:44.623Z,11.70
2019-04-23T02:37:18.697Z,11.63
2019-04-23T02:39:54.697Z,11.60
2019-04-23T02:42:28.649Z,11.60
2019-04-23T02:44:56.422Z,11.52
2019-04-23T02:47:34.783Z,11.52
2019-04-23T02:52:43.151Z,11.42
2019-04-23T03:05:40.297Z,11.36
2019-04-23T03:10:43.286Z,11.35
2019-04-23T03:16:21.860Z,11.27
2019-04-23T03:25:07.173Z,11.19
2019-04-23T03:27:34.230Z,11.19
2019-04-23T03:30:16.729Z,11.11
2019-04-23T03:36:10.608Z,11.10
2019-04-23T03:38:07.575Z,11.10
2019-04-23T03:40:27.656Z,11.06
2019-04-23T03:46:07.153Z,11.07
2019-04-23T03:48:26.227Z,11.07
2019-04-23T03:51:11.270Z,11.09
2019-04-23T04:06:33.753Z,10.99
2019-04-23T04:09:13.273Z,10.99
2019-04-23T04:11:34.292Z,10.98
2019-04-23T04:14:36.350Z,10.96
2019-04-23T04:16:42.779Z,11.05
2019-04-23T04:19:28.777Z,11.02
2019-04-23T04:22:13.510Z,11.02
2019-04-23T04:27:05.431Z,11.02
2019-04-23T04:32:11.897Z,11.03
2019-04-23T04:40:08.380Z,11.00
2019-04-23T04:42:28.593Z,11.00
2019-04-23T04:45:37.129Z,11.08
2019-04-23T04:47:42.215Z,11.05
2019-04-23T04:50:04.805Z,11.13
2019-04-23T04:53:18.354Z,11.13
2019-04-23T04:55:26.581Z,11.10
2019-04-23T04:57:58.132Z,11.13
2019-04-23T05:01:05.594Z,11.17
2019-04-23T05:03:22.172Z,11.17
2019-04-23T05:06:08.106Z,11.15
2019-04-23T05:08:34.413Z,11.15
2019-04-23T05:11:02.042Z,11.15
2019-04-23T05:13:41.305Z,11.24
2019-04-23T05:16:06.068Z,11.24
2019-04-23T05:19:02.684Z,11.30
2019-04-23T05:21:44.186Z,11.32
2019-04-23T05:23:54.076Z,11.33
2019-04-23T05:26:24.791Z,11.40
2019-04-23T05:29:06.424Z,11.40
2019-04-23T05:31:48.401Z,11.43
2019-04-23T05:39:26.870Z,11.53
2019-04-23T05:44:29.574Z,11.62
2019-04-23T05:47:07.201Z,11.67
2019-04-23T05:49:31.241Z,11.73
2019-04-23T05:52:07.526Z,11.83
2019-04-23T05:54:54.475Z,11.83
2019-04-23T05:57:13.749Z,11.76
2019-04-23T06:02:26.213Z,12.01
2019-04-23T06:04:57.259Z,12.00
2019-04-23T06:07:49.377Z,12.00
2019-04-23T06:10:14.610Z,12.10
2019-04-23T06:12:46.419Z,12.10
2019-04-23T06:15:20.785Z,12.29
2019-04-23T06:18:01.752Z,12.29
2019-04-23T06:20:47.213Z,12.31
2019-04-23T06:23:20.924Z,12.31
2019-04-23T06:25:57.715Z,12.42
2019-04-23T06:28:24.158Z,12.60
2019-04-23T06:31:04.657Z,12.60
2019-04-23T06:36:09.002Z,12.75
2019-04-23T06:41:23.340Z,12.93
2019-04-23T06:44:05.858Z,12.91
2019-04-23T06:46:48.054Z,12.98
2019-04-23T06:49:20.638Z,13.13
2019-04-23T06:54:26.609Z,12.95
2019-04-23T06:59:34.059Z,12.87
2019-04-23T07:04:55.166Z,12.88
2019-04-23T07:07:36.519Z,12.85
2019-04-23T07:09:52.370Z,12.89
2019-04-23T07:12:35.061Z,12.88
2019-04-23T07:15:11.624Z,12.91
2019-04-23T07:17:31.045Z,13.04
2019-04-23T07:20:09.777Z,13.04
2019-04-23T07:22:42.788Z,12.90
2019-04-23T07:25:17.277Z,12.85
2019-04-23T07:27:49.263Z,12.93
2019-04-23T07:30:31.449Z,12.94
2019-04-23T07:33:05.665Z,12.96
2019-04-23T07:35:47.922Z,13.14
2019-04-23T07:38:56.981Z,13.04
2019-04-23T07:44:36.902Z,13.16
2019-04-23T07:49:49.349Z,13.17
2019-04-23T07:52:24.208Z,13.19
2019-04-23T07:55:02.520Z,13.19
2019-04-23T07:57:34.418Z,13.13
2019-04-23T08:02:37.138Z,13.23
2019-04-23T08:05:25.162Z,13.23
2019-04-23T08:07:54.112Z,13.25
2019-04-23T08:10:22.695Z,13.37
2019-04-23T08:13:00.940Z,13.31
2019-04-23T08:15:35.116Z,13.41
2019-04-23T08:18:13.557Z,13.50
2019-04-23T08:23:25.638Z,13.50
2019-04-23T08:26:29.561Z,13.53
2019-04-23T08:29:12.519Z,13.48
2019-04-23T08:31:33.625Z,13.63
2019-04-23T08:34:16.770Z,13.76
2019-04-23T08:36:44.387Z,14.05
2019-04-23T08:39:13.753Z,13.96
2019-04-23T08:42:09.494Z,14.19
2019-04-23T08:44:57.005Z,14.11
2019-04-23T08:47:27.784Z,14.19
2019-04-23T08:49:59.376Z,14.24
2019-04-23T08:52:29.989Z,14.00
2019-04-23T08:55:11.184Z,13.97
2019-04-23T08:57:38.306Z,13.86
2019-04-23T09:00:17.713Z,13.86
2019-04-23T09:02:54.029Z,13.87
2019-04-23T09:05:28.630Z,13.87
2019-04-23T09:08:10.146Z,13.86
2019-04-23T09:10:41.154Z,13.74
2019-04-23T09:13:43.899Z,13.68
2019-04-23T09:15:49.810Z,13.66
2019-04-23T09:18:41.925Z,13.72
2019-04-23T09:20:55.118Z,13.81
2019-04-23T09:26:06.200Z,13.94
2019-04-23T09:34:09.618Z,13.95
2019-04-23T09:37:06.226Z,14.21
2019-04-23T09:40:14.954Z,13.91
2019-04-23T09:45:33.802Z,13.86
2019-04-23T09:48:18.387Z,13.91
2019-04-23T09:50:50.782Z,14.00
2019-04-23T09:53:25.186Z,13.94
2019-04-23T09:55:49.394Z,13.64
2019-04-23T09:58:24.665Z,13.55
2019-04-23T10:03:50.491Z,13.86
2019-04-23T10:06:19.067Z,14.16
2019-04-23T10:08:52.015Z,14.18
2019-04-23T10:11:22.324Z,14.42
2019-04-23T10:13:56.740Z,14.39
2019-04-23T10:16:34.141Z,14.32
2019-04-23T10:19:04.076Z,14.38
2019-04-23T10:21:41.857Z,14.51
2019-04-23T10:24:17.099Z,14.54
2019-04-23T10:26:50.375Z,14.59
2019-04-23T10:29:27.808Z,14.59
2019-04-23T10:31:59.858Z,14.37
2019-04-23T10:34:46.076Z,14.44
2019-04-23T10:37:09.551Z,14.53
2019-04-23T10:39:50.315Z,14.30
2019-04-23T10:42:18.483Z,14.28
2019-04-23T10:45:19.282Z,14.39
2019-04-23T10:48:28.078Z,14.04
2019-04-23T10:51:30.621Z,13.86
2019-04-23T10:59:31.639Z,13.84
2019-04-23T11:02:24.038Z,13.97
2019-04-23T11:07:29.844Z,14.04
2019-04-23T11:13:12.110Z,13.89
2019-04-23T11:18:14.253Z,14.10
2019-04-23T11:20:54.494Z,14.40
2019-04-23T11:23:04.928Z,14.71
2019-04-23T11:25:44.876Z,14.69
2019-04-23T11:30:55.307Z,14.96
2019-04-23T11:33:40.211Z,14.95
2019-04-23T11:38:56.205Z,15.23
2019-04-23T11:41:32.382Z,15.16
2019-04-23T11:44:09.708Z,15.11
2019-04-23T11:46:46.198Z,15.01
2019-04-23T11:54:27.742Z,15.37
2019-04-23T11:59:36.400Z,15.17
2019-04-23T12:02:35.548Z,15.09
2019-04-23T12:05:29.714Z,15.17
2019-04-23T12:08:17.509Z,14.83
2019-04-23T12:11:25.576Z,14.71
2019-04-23T12:13:35.413Z,14.49
2019-04-23T12:16:10.592Z,14.56
2019-04-23T12:18:58.135Z,14.72
2019-04-23T12:21:28.330Z,14.51
2019-04-23T12:24:04.702Z,14.28
2019-04-23T12:26:35.526Z,14.50
2019-04-23T12:29:12.686Z,14.18
2019-04-23T12:31:47.739Z,14.26
2019-04-23T12:34:30.123Z,14.24
2019-04-23T12:36:56.940Z,14.33
2019-04-23T12:39:33.016Z,14.47
2019-04-23T12:42:25.451Z,14.51
2019-04-23T12:44:45.818Z,14.46
2019-04-23T12:47:27.120Z,14.50
2019-04-23T12:50:05.419Z,14.55
2019-04-23T12:52:35.914Z,14.48
2019-04-23T12:55:06.782Z,13.85
2019-04-23T12:57:35.580Z,13.84
2019-04-23T13:00:05.084Z,13.65
2019-04-23T13:05:14.526Z,13.64
2019-04-23T13:08:08.656Z,13.44
2019-04-23T13:10:30.263Z,13.47
2019-04-23T13:13:11.456Z,13.48
2019-04-23T13:15:34.235Z,13.59
2019-04-23T13:18:15.394Z,13.62
2019-04-23T13:21:02.101Z,13.49
2019-04-23T13:25:59.726Z,13.59
2019-04-23T13:38:52.671Z,14.21
2019-04-23T13:41:27.891Z,14.04
2019-04-23T13:44:15.779Z,14.11
2019-04-23T13:46:49.762Z,14.30
2019-04-23T13:49:07.375Z,14.40
2019-04-23T13:52:13.759Z,14.59
2019-04-23T13:54:28.435Z,14.76
2019-04-23T13:57:25.675Z,14.63
2019-04-23T13:59:39.464Z,14.66
2019-04-23T14:02:11.466Z,14.54
2019-04-23T14:07:44.616Z,14.72
2019-04-23T14:10:13.554Z,14.77
2019-04-23T14:15:35.174Z,14.79
2019-04-23T14:18:10.476Z,14.75
2019-04-23T14:20:29.889Z,14.66
2019-04-23T14:23:17.822Z,14.69
2019-04-23T14:25:50.655Z,14.68
2019-04-23T14:30:54.209Z,14.96
2019-04-23T14:33:40.528Z,14.90
2019-04-23T14:36:03.219Z,14.89
2019-04-23T14:41:21.404Z,15.34
2019-04-23T14:43:49.811Z,15.63
2019-04-23T14:46:46.615Z,15.68
2019-04-23T14:51:44.094Z,15.67
2019-04-23T14:54:04.842Z,15.46
2019-04-23T14:56:58.831Z,15.54
2019-04-23T14:59:10.529Z,15.78
2019-04-23T15:01:49.791Z,15.93
2019-04-23T15:04:28.814Z,16.05
2019-04-23T15:07:08.950Z,16.01
2019-04-23T15:12:16.020Z,15.68
2019-04-23T15:14:51.299Z,15.65
2019-04-23T15:17:20.043Z,15.46
2019-04-23T15:20:03.051Z,15.45
2019-04-23T15:22:53.246Z,15.00
2019-04-23T15:28:05.340Z,14.80
2019-04-23T15:30:14.396Z,14.62
2019-04-23T15:33:19.844Z,14.68
2019-04-23T15:35:48.517Z,14.70
2019-04-23T15:38:28.672Z,14.42
2019-04-23T15:40:59.042Z,14.19
2019-04-23T15:43:15.357Z,14.11
2019-04-23T15:45:55.434Z,14.21
2019-04-23T15:48:26.346Z,14.14
2019-04-23T15:51:08.067Z,14.01
2019-04-23T15:53:28.487Z,14.02
2019-04-23T15:56:16.042Z,14.11
2019-04-23T15:58:47.073Z,14.06
2019-04-23T16:03:27.469Z,14.05
2019-04-23T16:05:59.649Z,13.79
2019-04-23T16:09:04.766Z,13.85
2019-04-23T16:17:05.086Z,13.90
2019-04-23T16:19:54.193Z,13.86
2019-04-23T16:22:33.231Z,13.89
2019-04-23T16:24:55.305Z,13.71
2019-04-23T16:27:21.476Z,13.69
2019-04-23T16:30:10.424Z,13.81
2019-04-23T16:33:02.457Z,13.84
2019-04-23T16:38:26.619Z,13.53
2019-04-23T16:43:12.715Z,13.52
2019-04-23T16:46:02.085Z,13.44
2019-04-23T16:48:44.022Z,13.34
2019-04-23T16:51:16.648Z,13.45
2019-04-23T16:53:30.258Z,13.24
2019-04-23T16:56:42.765Z,13.14
2019-04-23T17:01:19.830Z,12.91
2019-04-23T17:04:00.026Z,12.83
2019-04-23T17:06:44.285Z,12.96
2019-04-23T17:08:59.911Z,12.80
2019-04-23T17:11:35.924Z,12.80
2019-04-23T17:14:13.485Z,12.82
2019-04-23T17:19:22.704Z,12.82
2019-04-23T17:21:59.731Z,12.81
2019-04-23T17:24:27.630Z,12.78
2019-04-23T17:27:08.576Z,12.76
2019-04-23T17:29:43.895Z,12.61
2019-04-23T17:32:28.517Z,12.61
2019-04-23T17:37:53.909Z,12.46
2019-04-23T17:40:30.615Z,12.42
2019-04-23T17:43:05.879Z,12.23
2019-04-23T17:46:02.590Z,12.23
2019-04-23T17:48:22.174Z,12.29
2019-04-23T17:51:02.764Z,12.32
2019-04-23T17:53:42.171Z,12.27
2019-04-23T17:58:51.519Z,12.30
2019-04-23T18:04:20.587Z,12.41
2019-04-23T18:09:27.532Z,12.24
2019-04-23T18:11:53.877Z,12.30
2019-04-23T18:14:16.562Z,12.22
2019-04-23T18:17:07.178Z,12.20
2019-04-23T18:19:44.498Z,12.08
2019-04-23T18:22:27.763Z,11.99
2019-04-23T18:25:20.631Z,11.96
2019-04-23T18:30:51.131Z,12.02
2019-04-23T18:34:03.715Z,11.90
2019-04-23T18:36:08.074Z,11.90
2019-04-23T18:38:46.327Z,11.91
2019-04-23T18:41:10.710Z,11.85
2019-04-23T18:43:58.907Z,11.85
2019-04-23T18:48:59.055Z,11.82
2019-04-23T18:51:40.479Z,11.87
2019-04-23T18:54:15.372Z,11.85
2019-04-23T18:57:06.430Z,11.89
2019-04-23T18:59:37.255Z,11.87
2019-04-23T19:05:10.116Z,11.98
2019-04-23T19:10:48.679Z,12.08
2019-04-23T19:13:40.338Z,12.17
2019-04-23T19:15:48.779Z,12.23
2019-04-23T19:18:36.435Z,12.26
2019-04-23T19:21:30.113Z,12.26
2019-04-23T19:26:24.412Z,12.30
2019-04-23T19:31:40.463Z,12.33
2019-04-23T19:39:26.327Z,12.37
2019-04-23T19:44:28.021Z,12.30
2019-04-23T19:49:36.927Z,12.30
2019-04-23T19:52:03.114Z,12.30
2019-04-23T19:54:55.063Z,12.24
2019-04-23T19:59:58.129Z,12.16
2019-04-23T20:02:46.664Z,12.17
2019-04-23T20:04:59.530Z,12.11
2019-04-23T20:10:04.112Z,11.72
2019-04-23T20:12:50.037Z,11.65
2019-04-23T20:15:15.943Z,11.65
2019-04-23T20:17:54.143Z,11.56
2019-04-23T20:20:38.348Z,11.59
2019-04-23T20:23:37.875Z,11.54
2019-04-23T20:28:40.856Z,11.66
2019-04-23T20:34:19.656Z,11.74
2019-04-23T20:36:40.679Z,11.73
2019-04-23T20:39:17.390Z,11.63
2019-04-23T20:42:08.900Z,11.52
2019-04-23T20:44:42.444Z,11.51
2019-04-23T20:49:43.007Z,11.42
2019-04-23T20:52:07.373Z,11.42
2019-04-23T20:54:56.885Z,11.39
2019-04-23T20:57:45.528Z,11.36
2019-04-23T21:05:27.152Z,11.31
2019-04-23T21:08:14.480Z,11.30
2019-04-23T21:10:41.590Z,11.30
2019-04-23T21:13:28.038Z,11.39
2019-04-23T21:15:54.684Z,11.39
2019-04-23T21:18:35.968Z,11.35
2019-04-23T21:21:02.548Z,11.32
2019-04-23T21:23:37.710Z,11.35
2019-04-23T21:26:01.643Z,11.31
2019-04-23T21:36:56.129Z,11.13
2019-04-23T21:40:19.200Z,11.12
2019-04-23T21:43:01.548Z,11.12
2019-04-23T21:45:40.728Z,11.20
2019-04-23T21:48:08.347Z,11.16
2019-04-23T21:50:52.518Z,11.08
2019-04-23T21:53:18.403Z,11.00
2019-04-23T21:55:56.247Z,11.00
2019-04-23T21:58:36.673Z,11.10
2019-04-23T22:01:18.711Z,11.07
2019-04-23T22:06:33.555Z,11.01
2019-04-23T22:16:53.909Z,10.92
2019-04-23T22:21:50.942Z,10.83
2019-04-23T22:24:19.789Z,10.88
2019-04-23T22:26:54.541Z,10.77
2019-04-23T22:29:37.756Z,10.77
2019-04-23T22:31:58.242Z,10.74
2019-04-23T22:34:43.201Z,10.71
2019-04-23T22:42:42.903Z,10.62
2019-04-23T22:45:07.130Z,10.63
2019-04-23T22:47:33.602Z,10.61
2019-04-23T22:50:06.144Z,10.53
2019-04-23T22:55:13.985Z,10.43
2019-04-23T23:00:16.587Z,10.39
2019-04-23T23:03:08.270Z,10.39
2019-04-23T23:06:10.675Z,10.43
2019-04-23T23:08:36.190Z,10.39
2019-04-23T23:10:57.006Z,10.30
2019-04-23T23:13:48.328Z,10.30
2019-04-23T23:18:39.297Z,10.16
2019-04-23T23:21:20.225Z,10.29
2019-04-23T23:23:52.835Z,10.33
2019-04-23T23:26:28.156Z,10.39
2019-04-23T23:29:05.852Z,10.41
2019-04-23T23:31:39.852Z,10.38
2019-04-23T23:34:15.758Z,10.45
2019-04-23T23:39:22.784Z,10.44
2019-04-23T23:41:57.213Z,10.48
2019-04-23T23:47:12.728Z,10.43
2019-04-23T23:52:13.260Z,10.38
2019-04-23T23:54:52.522Z,10.38
2019-04-23T23:57:23.409Z,10.34
